sensor_id;sensor_type;location;lat;lon;timestamp;P1;durP1;ratioP1;P2;durP2;ratioP2
7933;SDS011;4012;48.896;9.192;2024-01-15T00:01:33;26.30;;;16.23;;
7933;SDS011;4012;48.896;9.192;2024-01-15T00:04:02;27.63;;;16.33;;
7933;SDS011;4012;48.896;9.192;2024-01-15T00:06:27;25.47;;;15.33;;
7933;SDS011;4012;48.896;9.192;2024-01-15T00:08:53;24.97;;;15.23;;
7933;SDS011;4012;48.896;9.192;2024-01-15T00:11:19;26.10;;;16.07;;
7933;SDS011;4012;48.896;9.192;2024-01-15T00:13:45;26.17;;;15.10;;
7933;SDS011;4012;48.896;9.192;2024-01-15T00:16:11;23.87;;;15.07;;
7933;SDS011;4012;48.896;9.192;2024-01-15T00:18:37;26.17;;;14.53;;
7933;SDS011;4012;48.896;9.192;2024-01-15T00:21:02;26.40;;;15.77;;
7933;SDS011;4012;48.896;9.192;2024-01-15T00:23:28;25.60;;;14.53;;
7933;SDS011;4012;48.896;9.192;2024-01-15T00:25:54;26.47;;;14.77;;
7933;SDS011;4012;48.896;9.192;2024-01-15T00:28:19;24.00;;;14.77;;
7933;SDS011;4012;48.896;9.192;2024-01-15T00:30:45;25.20;;;14.43;;
7933;SDS011;4012;48.896;9.192;2024-01-15T00:33:10;25.50;;;14.70;;
7933;SDS011;4012;48.896;9.192;2024-01-15T00:35:37;23.53;;;13.47;;
7933;SDS011;4012;48.896;9.192;2024-01-15T00:38:03;22.97;;;14.43;;
7933;SDS011;4012;48.896;9.192;2024-01-15T00:40:28;23.50;;;13.97;;
7933;SDS011;4012;48.896;9.192;2024-01-15T00:42:54;23.23;;;13.60;;
7933;SDS011;4012;48.896;9.192;2024-01-15T00:45:20;24.80;;;14.17;;
7933;SDS011;4012;48.896;9.192;2024-01-15T00:47:45;23.23;;;14.33;;
7933;SDS011;4012;48.896;9.192;2024-01-15T00:50:11;26.47;;;14.27;;
7933;SDS011;4012;48.896;9.192;2024-01-15T00:52:36;23.87;;;12.80;;
7933;SDS011;4012;48.896;9.192;2024-01-15T00:55:02;25.53;;;15.27;;
7933;SDS011;4012;48.896;9.192;2024-01-15T00:57:28;20.13;;;13.20;;
7933;SDS011;4012;48.896;9.192;2024-01-15T00:59:53;22.50;;;13.43;;
7933;SDS011;4012;48.896;9.192;2024-01-15T01:02:19;23.87;;;13.43;;
7933;SDS011;4012;48.896;9.192;2024-01-15T01:04:45;20.00;;;13.23;;
7933;SDS011;4012;48.896;9.192;2024-01-15T01:07:10;21.83;;;13.73;;
7933;SDS011;4012;48.896;9.192;2024-01-15T01:09:36;23.83;;;12.30;;
7933;SDS011;4012;48.896;9.192;2024-01-15T01:12:01;20.50;;;12.40;;
7933;SDS011;4012;48.896;9.192;2024-01-15T01:14:27;20.73;;;12.13;;
7933;SDS011;4012;48.896;9.192;2024-01-15T01:16:53;22.83;;;12.97;;
7933;SDS011;4012;48.896;9.192;2024-01-15T01:19:18;22.63;;;12.60;;
7933;SDS011;4012;48.896;9.192;2024-01-15T01:21:44;20.37;;;12.30;;
7933;SDS011;4012;48.896;9.192;2024-01-15T01:24:09;19.73;;;11.97;;
7933;SDS011;4012;48.896;9.192;2024-01-15T01:26:35;18.70;;;12.07;;
7933;SDS011;4012;48.896;9.192;2024-01-15T01:29:00;21.90;;;12.13;;
7933;SDS011;4012;48.896;9.192;2024-01-15T01:31:26;24.93;;;13.37;;
7933;SDS011;4012;48.896;9.192;2024-01-15T01:33:52;19.37;;;12.27;;
7933;SDS011;4012;48.896;9.192;2024-01-15T01:36:17;18.87;;;11.67;;
7933;SDS011;4012;48.896;9.192;2024-01-15T01:38:43;20.00;;;12.53;;
7933;SDS011;4012;48.896;9.192;2024-01-15T01:41:08;19.13;;;11.90;;
7933;SDS011;4012;48.896;9.192;2024-01-15T01:43:35;20.50;;;11.83;;
7933;SDS011;4012;48.896;9.192;2024-01-15T01:46:01;19.50;;;12.60;;
7933;SDS011;4012;48.896;9.192;2024-01-15T01:48:28;19.33;;;11.37;;
7933;SDS011;4012;48.896;9.192;2024-01-15T01:50:54;20.57;;;12.87;;
7933;SDS011;4012;48.896;9.192;2024-01-15T01:53:26;19.97;;;11.90;;
7933;SDS011;4012;48.896;9.192;2024-01-15T01:55:53;19.27;;;11.87;;
7933;SDS011;4012;48.896;9.192;2024-01-15T01:58:19;21.43;;;12.33;;
7933;SDS011;4012;48.896;9.192;2024-01-15T02:00:45;20.43;;;12.20;;
7933;SDS011;4012;48.896;9.192;2024-01-15T02:03:12;19.10;;;11.37;;
7933;SDS011;4012;48.896;9.192;2024-01-15T02:05:39;18.87;;;11.60;;
7933;SDS011;4012;48.896;9.192;2024-01-15T02:08:05;18.30;;;10.77;;
7933;SDS011;4012;48.896;9.192;2024-01-15T02:10:31;20.80;;;11.50;;
7933;SDS011;4012;48.896;9.192;2024-01-15T02:12:57;16.70;;;10.57;;
7933;SDS011;4012;48.896;9.192;2024-01-15T02:15:23;18.27;;;10.77;;
7933;SDS011;4012;48.896;9.192;2024-01-15T02:18:01;17.53;;;10.20;;
7933;SDS011;4012;48.896;9.192;2024-01-15T02:20:29;17.47;;;11.60;;
7933;SDS011;4012;48.896;9.192;2024-01-15T02:23:08;17.77;;;11.20;;
7933;SDS011;4012;48.896;9.192;2024-01-15T02:25:43;17.40;;;10.97;;
7933;SDS011;4012;48.896;9.192;2024-01-15T02:28:13;16.57;;;10.70;;
7933;SDS011;4012;48.896;9.192;2024-01-15T02:30:41;16.20;;;10.53;;
7933;SDS011;4012;48.896;9.192;2024-01-15T02:33:07;15.83;;;9.30;;
7933;SDS011;4012;48.896;9.192;2024-01-15T02:35:34;17.60;;;10.30;;
7933;SDS011;4012;48.896;9.192;2024-01-15T02:38:01;16.20;;;10.63;;
7933;SDS011;4012;48.896;9.192;2024-01-15T02:40:27;17.27;;;10.33;;
7933;SDS011;4012;48.896;9.192;2024-01-15T02:42:53;15.63;;;9.97;;
7933;SDS011;4012;48.896;9.192;2024-01-15T02:45:19;14.57;;;9.77;;
7933;SDS011;4012;48.896;9.192;2024-01-15T02:47:45;17.00;;;9.90;;
7933;SDS011;4012;48.896;9.192;2024-01-15T02:50:10;18.63;;;11.00;;
7933;SDS011;4012;48.896;9.192;2024-01-15T02:52:36;16.53;;;10.30;;
7933;SDS011;4012;48.896;9.192;2024-01-15T02:55:02;15.30;;;10.17;;
7933;SDS011;4012;48.896;9.192;2024-01-15T02:57:28;16.20;;;10.40;;
7933;SDS011;4012;48.896;9.192;2024-01-15T02:59:53;17.13;;;10.50;;
7933;SDS011;4012;48.896;9.192;2024-01-15T03:02:19;17.10;;;9.77;;
7933;SDS011;4012;48.896;9.192;2024-01-15T03:04:44;15.57;;;9.77;;
7933;SDS011;4012;48.896;9.192;2024-01-15T03:07:10;14.47;;;9.47;;
7933;SDS011;4012;48.896;9.192;2024-01-15T03:09:36;16.80;;;9.53;;
7933;SDS011;4012;48.896;9.192;2024-01-15T03:12:01;14.67;;;9.83;;
7933;SDS011;4012;48.896;9.192;2024-01-15T03:14:27;14.87;;;9.67;;
7933;SDS011;4012;48.896;9.192;2024-01-15T03:16:53;14.73;;;9.13;;
7933;SDS011;4012;48.896;9.192;2024-01-15T03:19:18;15.23;;;9.03;;
7933;SDS011;4012;48.896;9.192;2024-01-15T03:21:44;15.70;;;9.57;;
7933;SDS011;4012;48.896;9.192;2024-01-15T03:24:10;15.37;;;8.63;;
7933;SDS011;4012;48.896;9.192;2024-01-15T03:26:35;13.53;;;9.00;;
7933;SDS011;4012;48.896;9.192;2024-01-15T03:29:01;15.70;;;9.43;;
7933;SDS011;4012;48.896;9.192;2024-01-15T03:31:26;16.47;;;9.63;;
7933;SDS011;4012;48.896;9.192;2024-01-15T03:33:52;14.13;;;9.17;;
7933;SDS011;4012;48.896;9.192;2024-01-15T03:36:17;15.23;;;8.97;;
7933;SDS011;4012;48.896;9.192;2024-01-15T03:38:43;16.83;;;10.30;;
7933;SDS011;4012;48.896;9.192;2024-01-15T03:41:09;16.70;;;9.33;;
7933;SDS011;4012;48.896;9.192;2024-01-15T03:43:34;16.30;;;9.77;;
7933;SDS011;4012;48.896;9.192;2024-01-15T03:46:00;12.70;;;9.00;;
7933;SDS011;4012;48.896;9.192;2024-01-15T03:48:27;13.83;;;9.83;;
7933;SDS011;4012;48.896;9.192;2024-01-15T03:50:52;16.90;;;9.63;;
7933;SDS011;4012;48.896;9.192;2024-01-15T03:53:18;14.17;;;9.30;;
7933;SDS011;4012;48.896;9.192;2024-01-15T03:55:43;12.80;;;8.33;;
7933;SDS011;4012;48.896;9.192;2024-01-15T03:58:09;13.33;;;8.43;;
7933;SDS011;4012;48.896;9.192;2024-01-15T04:00:35;16.30;;;9.37;;
7933;SDS011;4012;48.896;9.192;2024-01-15T04:03:00;11.93;;;8.10;;
7933;SDS011;4012;48.896;9.192;2024-01-15T04:05:26;15.70;;;8.73;;
7933;SDS011;4012;48.896;9.192;2024-01-15T04:07:51;13.03;;;8.67;;
7933;SDS011;4012;48.896;9.192;2024-01-15T04:10:17;13.37;;;8.23;;
7933;SDS011;4012;48.896;9.192;2024-01-15T04:12:43;13.03;;;8.07;;
7933;SDS011;4012;48.896;9.192;2024-01-15T04:15:08;12.30;;;8.40;;
7933;SDS011;4012;48.896;9.192;2024-01-15T04:17:34;11.33;;;7.77;;
7933;SDS011;4012;48.896;9.192;2024-01-15T04:19:59;13.53;;;8.33;;
7933;SDS011;4012;48.896;9.192;2024-01-15T04:22:26;12.13;;;7.13;;
7933;SDS011;4012;48.896;9.192;2024-01-15T04:24:52;12.73;;;7.20;;
7933;SDS011;4012;48.896;9.192;2024-01-15T04:27:17;10.57;;;7.27;;
7933;SDS011;4012;48.896;9.192;2024-01-15T04:29:43;13.37;;;8.40;;
7933;SDS011;4012;48.896;9.192;2024-01-15T04:32:09;12.53;;;7.73;;
7933;SDS011;4012;48.896;9.192;2024-01-15T04:34:35;10.97;;;7.60;;
7933;SDS011;4012;48.896;9.192;2024-01-15T04:37:00;12.63;;;7.10;;
7933;SDS011;4012;48.896;9.192;2024-01-15T04:39:26;9.30;;;6.90;;
7933;SDS011;4012;48.896;9.192;2024-01-15T04:41:52;9.53;;;6.70;;
7933;SDS011;4012;48.896;9.192;2024-01-15T04:44:18;10.97;;;6.43;;
7933;SDS011;4012;48.896;9.192;2024-01-15T04:46:43;11.20;;;7.00;;
7933;SDS011;4012;48.896;9.192;2024-01-15T04:49:10;9.93;;;6.60;;
7933;SDS011;4012;48.896;9.192;2024-01-15T04:51:36;11.60;;;7.03;;
7933;SDS011;4012;48.896;9.192;2024-01-15T04:54:02;9.63;;;6.67;;
7933;SDS011;4012;48.896;9.192;2024-01-15T04:56:27;11.70;;;6.90;;
7933;SDS011;4012;48.896;9.192;2024-01-15T04:58:53;10.27;;;6.67;;
7933;SDS011;4012;48.896;9.192;2024-01-15T05:01:18;9.37;;;6.07;;
7933;SDS011;4012;48.896;9.192;2024-01-15T05:03:44;11.30;;;6.47;;
7933;SDS011;4012;48.896;9.192;2024-01-15T05:06:10;8.20;;;5.77;;
7933;SDS011;4012;48.896;9.192;2024-01-15T05:08:35;9.83;;;6.43;;
7933;SDS011;4012;48.896;9.192;2024-01-15T05:11:01;9.67;;;7.23;;
7933;SDS011;4012;48.896;9.192;2024-01-15T05:13:27;10.70;;;7.20;;
7933;SDS011;4012;48.896;9.192;2024-01-15T05:15:53;9.90;;;6.57;;
7933;SDS011;4012;48.896;9.192;2024-01-15T05:18:18;9.27;;;6.10;;
7933;SDS011;4012;48.896;9.192;2024-01-15T05:20:44;8.13;;;6.00;;
7933;SDS011;4012;48.896;9.192;2024-01-15T05:23:09;11.40;;;6.40;;
7933;SDS011;4012;48.896;9.192;2024-01-15T05:25:35;8.17;;;5.80;;
7933;SDS011;4012;48.896;9.192;2024-01-15T05:28:01;8.57;;;5.67;;
7933;SDS011;4012;48.896;9.192;2024-01-15T05:30:27;10.17;;;5.93;;
7933;SDS011;4012;48.896;9.192;2024-01-15T05:32:53;8.37;;;6.03;;
7933;SDS011;4012;48.896;9.192;2024-01-15T05:35:18;13.00;;;7.20;;
7933;SDS011;4012;48.896;9.192;2024-01-15T05:37:44;9.50;;;6.37;;
7933;SDS011;4012;48.896;9.192;2024-01-15T05:40:11;11.07;;;7.33;;
7933;SDS011;4012;48.896;9.192;2024-01-15T05:42:38;10.40;;;6.13;;
7933;SDS011;4012;48.896;9.192;2024-01-15T05:45:04;11.23;;;7.30;;
7933;SDS011;4012;48.896;9.192;2024-01-15T05:47:31;9.97;;;7.00;;
7933;SDS011;4012;48.896;9.192;2024-01-15T05:49:57;11.53;;;7.30;;
7933;SDS011;4012;48.896;9.192;2024-01-15T05:52:23;9.97;;;7.00;;
7933;SDS011;4012;48.896;9.192;2024-01-15T05:54:49;10.63;;;7.30;;
7933;SDS011;4012;48.896;9.192;2024-01-15T05:57:15;15.20;;;8.23;;
7933;SDS011;4012;48.896;9.192;2024-01-15T05:59:41;11.77;;;7.67;;
7933;SDS011;4012;48.896;9.192;2024-01-15T06:02:07;10.03;;;7.53;;
7933;SDS011;4012;48.896;9.192;2024-01-15T06:04:33;13.10;;;8.90;;
7933;SDS011;4012;48.896;9.192;2024-01-15T06:06:58;11.20;;;7.80;;
7933;SDS011;4012;48.896;9.192;2024-01-15T06:09:24;11.33;;;7.30;;
7933;SDS011;4012;48.896;9.192;2024-01-15T06:11:50;13.07;;;7.83;;
7933;SDS011;4012;48.896;9.192;2024-01-15T06:14:15;11.87;;;8.07;;
7933;SDS011;4012;48.896;9.192;2024-01-15T06:16:41;13.50;;;7.90;;
7933;SDS011;4012;48.896;9.192;2024-01-15T06:19:06;10.47;;;7.17;;
7933;SDS011;4012;48.896;9.192;2024-01-15T06:21:32;11.33;;;7.17;;
7933;SDS011;4012;48.896;9.192;2024-01-15T06:23:57;10.40;;;7.23;;
7933;SDS011;4012;48.896;9.192;2024-01-15T06:26:23;15.00;;;7.87;;
7933;SDS011;4012;48.896;9.192;2024-01-15T06:28:49;11.47;;;6.97;;
7933;SDS011;4012;48.896;9.192;2024-01-15T06:31:14;11.13;;;6.93;;
7933;SDS011;4012;48.896;9.192;2024-01-15T06:33:40;11.63;;;6.97;;
7933;SDS011;4012;48.896;9.192;2024-01-15T06:36:06;10.10;;;6.87;;
7933;SDS011;4012;48.896;9.192;2024-01-15T06:38:31;13.27;;;7.30;;
7933;SDS011;4012;48.896;9.192;2024-01-15T06:40:57;9.60;;;6.30;;
7933;SDS011;4012;48.896;9.192;2024-01-15T06:43:23;12.27;;;7.73;;
7933;SDS011;4012;48.896;9.192;2024-01-15T06:45:48;10.50;;;7.00;;
7933;SDS011;4012;48.896;9.192;2024-01-15T06:48:14;10.97;;;7.37;;
7933;SDS011;4012;48.896;9.192;2024-01-15T06:50:41;11.23;;;6.97;;
7933;SDS011;4012;48.896;9.192;2024-01-15T06:53:07;11.83;;;7.67;;
7933;SDS011;4012;48.896;9.192;2024-01-15T06:55:33;11.33;;;8.13;;
7933;SDS011;4012;48.896;9.192;2024-01-15T06:57:59;11.20;;;7.10;;
7933;SDS011;4012;48.896;9.192;2024-01-15T07:00:25;13.90;;;7.87;;
7933;SDS011;4012;48.896;9.192;2024-01-15T07:02:51;11.73;;;6.97;;
7933;SDS011;4012;48.896;9.192;2024-01-15T07:05:16;12.10;;;7.33;;
7933;SDS011;4012;48.896;9.192;2024-01-15T07:07:42;13.17;;;7.87;;
7933;SDS011;4012;48.896;9.192;2024-01-15T07:10:08;10.43;;;6.63;;
7933;SDS011;4012;48.896;9.192;2024-01-15T07:12:33;10.77;;;7.20;;
7933;SDS011;4012;48.896;9.192;2024-01-15T07:14:59;10.00;;;6.67;;
7933;SDS011;4012;48.896;9.192;2024-01-15T07:17:25;12.00;;;7.53;;
7933;SDS011;4012;48.896;9.192;2024-01-15T07:19:50;11.37;;;7.40;;
7933;SDS011;4012;48.896;9.192;2024-01-15T07:22:16;11.67;;;7.27;;
7933;SDS011;4012;48.896;9.192;2024-01-15T07:24:42;10.80;;;6.60;;
7933;SDS011;4012;48.896;9.192;2024-01-15T07:27:08;12.90;;;6.83;;
7933;SDS011;4012;48.896;9.192;2024-01-15T07:29:34;12.30;;;7.00;;
7933;SDS011;4012;48.896;9.192;2024-01-15T07:32:03;12.30;;;7.27;;
7933;SDS011;4012;48.896;9.192;2024-01-15T07:34:29;10.03;;;6.90;;
7933;SDS011;4012;48.896;9.192;2024-01-15T07:36:54;10.00;;;6.73;;
7933;SDS011;4012;48.896;9.192;2024-01-15T07:39:20;9.47;;;6.73;;
7933;SDS011;4012;48.896;9.192;2024-01-15T07:41:48;10.63;;;7.40;;
7933;SDS011;4012;48.896;9.192;2024-01-15T07:44:14;11.47;;;7.53;;
7933;SDS011;4012;48.896;9.192;2024-01-15T07:46:40;10.37;;;7.27;;
7933;SDS011;4012;48.896;9.192;2024-01-15T07:49:08;11.67;;;7.07;;
7933;SDS011;4012;48.896;9.192;2024-01-15T07:51:34;8.87;;;6.83;;
7933;SDS011;4012;48.896;9.192;2024-01-15T07:53:59;8.90;;;6.10;;
7933;SDS011;4012;48.896;9.192;2024-01-15T07:56:25;10.37;;;6.50;;
7933;SDS011;4012;48.896;9.192;2024-01-15T07:58:52;9.07;;;6.53;;
7933;SDS011;4012;48.896;9.192;2024-01-15T08:01:18;9.17;;;6.10;;
7933;SDS011;4012;48.896;9.192;2024-01-15T08:03:43;10.07;;;6.80;;
7933;SDS011;4012;48.896;9.192;2024-01-15T08:06:09;10.80;;;6.60;;
7933;SDS011;4012;48.896;9.192;2024-01-15T08:08:35;12.90;;;6.80;;
7933;SDS011;4012;48.896;9.192;2024-01-15T08:11:01;10.70;;;6.53;;
7933;SDS011;4012;48.896;9.192;2024-01-15T08:13:27;11.87;;;6.07;;
7933;SDS011;4012;48.896;9.192;2024-01-15T08:15:53;11.03;;;6.50;;
7933;SDS011;4012;48.896;9.192;2024-01-15T08:18:18;9.60;;;6.63;;
7933;SDS011;4012;48.896;9.192;2024-01-15T08:20:46;9.20;;;6.30;;
7933;SDS011;4012;48.896;9.192;2024-01-15T08:23:12;8.60;;;5.67;;
7933;SDS011;4012;48.896;9.192;2024-01-15T08:25:38;7.73;;;5.93;;
7933;SDS011;4012;48.896;9.192;2024-01-15T08:28:03;8.53;;;6.30;;
7933;SDS011;4012;48.896;9.192;2024-01-15T08:30:29;8.43;;;5.20;;
7933;SDS011;4012;48.896;9.192;2024-01-15T08:32:55;9.60;;;5.60;;
7933;SDS011;4012;48.896;9.192;2024-01-15T08:35:21;9.57;;;5.13;;
7933;SDS011;4012;48.896;9.192;2024-01-15T08:37:51;9.73;;;5.87;;
7933;SDS011;4012;48.896;9.192;2024-01-15T08:40:17;8.77;;;5.37;;
7933;SDS011;4012;48.896;9.192;2024-01-15T08:42:43;9.33;;;5.83;;
7933;SDS011;4012;48.896;9.192;2024-01-15T08:45:10;8.73;;;6.37;;
7933;SDS011;4012;48.896;9.192;2024-01-15T08:47:36;6.90;;;4.30;;
7933;SDS011;4012;48.896;9.192;2024-01-15T08:50:02;10.77;;;5.20;;
7933;SDS011;4012;48.896;9.192;2024-01-15T08:52:28;10.70;;;5.43;;
7933;SDS011;4012;48.896;9.192;2024-01-15T08:54:55;7.73;;;5.33;;
7933;SDS011;4012;48.896;9.192;2024-01-15T08:57:21;10.20;;;6.70;;
7933;SDS011;4012;48.896;9.192;2024-01-15T08:59:47;12.20;;;5.57;;
7933;SDS011;4012;48.896;9.192;2024-01-15T09:02:13;11.87;;;5.40;;
7933;SDS011;4012;48.896;9.192;2024-01-15T09:04:38;6.80;;;4.50;;
7933;SDS011;4012;48.896;9.192;2024-01-15T09:07:04;6.77;;;4.30;;
7933;SDS011;4012;48.896;9.192;2024-01-15T09:09:30;7.33;;;4.70;;
7933;SDS011;4012;48.896;9.192;2024-01-15T09:11:55;6.13;;;4.13;;
7933;SDS011;4012;48.896;9.192;2024-01-15T09:14:21;8.07;;;4.73;;
7933;SDS011;4012;48.896;9.192;2024-01-15T09:16:49;7.67;;;4.67;;
7933;SDS011;4012;48.896;9.192;2024-01-15T09:19:15;14.40;;;5.40;;
7933;SDS011;4012;48.896;9.192;2024-01-15T09:21:40;6.70;;;4.63;;
7933;SDS011;4012;48.896;9.192;2024-01-15T09:24:06;7.43;;;4.77;;
7933;SDS011;4012;48.896;9.192;2024-01-15T09:26:32;8.90;;;4.07;;
7933;SDS011;4012;48.896;9.192;2024-01-15T09:28:57;11.00;;;4.23;;
7933;SDS011;4012;48.896;9.192;2024-01-15T09:31:23;4.50;;;3.30;;
7933;SDS011;4012;48.896;9.192;2024-01-15T09:33:49;8.57;;;4.23;;
7933;SDS011;4012;48.896;9.192;2024-01-15T09:36:18;7.17;;;4.07;;
7933;SDS011;4012;48.896;9.192;2024-01-15T09:38:44;9.47;;;4.10;;
7933;SDS011;4012;48.896;9.192;2024-01-15T09:41:10;6.00;;;3.60;;
7933;SDS011;4012;48.896;9.192;2024-01-15T09:43:36;6.77;;;3.60;;
7933;SDS011;4012;48.896;9.192;2024-01-15T09:46:03;7.17;;;3.60;;
7933;SDS011;4012;48.896;9.192;2024-01-15T09:48:29;6.00;;;3.57;;
7933;SDS011;4012;48.896;9.192;2024-01-15T09:50:55;20.87;;;4.83;;
7933;SDS011;4012;48.896;9.192;2024-01-15T09:53:23;5.37;;;4.00;;
7933;SDS011;4012;48.896;9.192;2024-01-15T09:55:50;11.20;;;4.40;;
7933;SDS011;4012;48.896;9.192;2024-01-15T09:58:17;11.57;;;4.10;;
7933;SDS011;4012;48.896;9.192;2024-01-15T10:00:44;14.80;;;4.53;;
7933;SDS011;4012;48.896;9.192;2024-01-15T10:03:12;7.63;;;4.23;;
7933;SDS011;4012;48.896;9.192;2024-01-15T10:05:38;8.60;;;3.93;;
7933;SDS011;4012;48.896;9.192;2024-01-15T10:08:04;7.43;;;4.37;;
7933;SDS011;4012;48.896;9.192;2024-01-15T10:10:30;6.40;;;4.17;;
7933;SDS011;4012;48.896;9.192;2024-01-15T10:12:56;6.43;;;3.53;;
7933;SDS011;4012;48.896;9.192;2024-01-15T10:15:25;5.37;;;3.07;;
7933;SDS011;4012;48.896;9.192;2024-01-15T10:17:51;5.83;;;3.53;;
7933;SDS011;4012;48.896;9.192;2024-01-15T10:20:17;8.73;;;3.60;;
7933;SDS011;4012;48.896;9.192;2024-01-15T10:22:43;7.57;;;4.07;;
7933;SDS011;4012;48.896;9.192;2024-01-15T10:25:12;8.33;;;4.67;;
7933;SDS011;4012;48.896;9.192;2024-01-15T10:27:38;6.87;;;3.83;;
7933;SDS011;4012;48.896;9.192;2024-01-15T10:30:05;10.20;;;3.70;;
7933;SDS011;4012;48.896;9.192;2024-01-15T10:32:31;4.40;;;3.27;;
7933;SDS011;4012;48.896;9.192;2024-01-15T10:34:57;5.47;;;3.67;;
7933;SDS011;4012;48.896;9.192;2024-01-15T10:37:23;7.80;;;4.20;;
7933;SDS011;4012;48.896;9.192;2024-01-15T10:39:49;13.83;;;4.10;;
7933;SDS011;4012;48.896;9.192;2024-01-15T10:42:15;6.33;;;3.23;;
7933;SDS011;4012;48.896;9.192;2024-01-15T10:44:43;8.33;;;4.07;;
7933;SDS011;4012;48.896;9.192;2024-01-15T10:47:09;7.37;;;3.77;;
7933;SDS011;4012;48.896;9.192;2024-01-15T10:49:36;7.07;;;3.90;;
7933;SDS011;4012;48.896;9.192;2024-01-15T10:52:02;6.43;;;4.13;;
7933;SDS011;4012;48.896;9.192;2024-01-15T10:54:28;7.17;;;3.77;;
7933;SDS011;4012;48.896;9.192;2024-01-15T10:56:57;6.37;;;4.07;;
7933;SDS011;4012;48.896;9.192;2024-01-15T10:59:23;6.03;;;3.63;;
7933;SDS011;4012;48.896;9.192;2024-01-15T11:01:52;6.97;;;3.40;;
7933;SDS011;4012;48.896;9.192;2024-01-15T11:04:19;5.40;;;3.60;;
7933;SDS011;4012;48.896;9.192;2024-01-15T11:06:49;4.73;;;3.73;;
7933;SDS011;4012;48.896;9.192;2024-01-15T11:09:17;4.50;;;3.67;;
7933;SDS011;4012;48.896;9.192;2024-01-15T11:11:44;5.23;;;3.67;;
7933;SDS011;4012;48.896;9.192;2024-01-15T11:14:32;7.37;;;3.80;;
7933;SDS011;4012;48.896;9.192;2024-01-15T11:17:10;6.87;;;4.07;;
7933;SDS011;4012;48.896;9.192;2024-01-15T11:19:38;8.70;;;4.80;;
7933;SDS011;4012;48.896;9.192;2024-01-15T11:24:56;6.47;;;4.40;;
7933;SDS011;4012;48.896;9.192;2024-01-15T11:30:18;8.20;;;4.57;;
7933;SDS011;4012;48.896;9.192;2024-01-15T11:32:47;7.30;;;4.77;;
7933;SDS011;4012;48.896;9.192;2024-01-15T11:35:13;9.17;;;5.43;;
7933;SDS011;4012;48.896;9.192;2024-01-15T11:40:20;7.10;;;4.70;;
7933;SDS011;4012;48.896;9.192;2024-01-15T11:42:47;6.53;;;4.10;;
7933;SDS011;4012;48.896;9.192;2024-01-15T11:45:18;7.67;;;4.43;;
7933;SDS011;4012;48.896;9.192;2024-01-15T11:50:21;6.53;;;4.47;;
7933;SDS011;4012;48.896;9.192;2024-01-15T11:52:54;8.30;;;4.40;;
7933;SDS011;4012;48.896;9.192;2024-01-15T11:55:27;10.00;;;5.10;;
7933;SDS011;4012;48.896;9.192;2024-01-15T11:57:55;5.67;;;4.27;;
7933;SDS011;4012;48.896;9.192;2024-01-15T12:00:24;7.13;;;4.87;;
7933;SDS011;4012;48.896;9.192;2024-01-15T12:02:50;6.80;;;5.10;;
7933;SDS011;4012;48.896;9.192;2024-01-15T12:05:17;5.97;;;4.30;;
7933;SDS011;4012;48.896;9.192;2024-01-15T12:07:47;10.03;;;5.43;;
7933;SDS011;4012;48.896;9.192;2024-01-15T12:10:23;7.73;;;4.57;;
7933;SDS011;4012;48.896;9.192;2024-01-15T12:15:26;8.27;;;5.47;;
7933;SDS011;4012;48.896;9.192;2024-01-15T12:17:56;6.73;;;4.67;;
7933;SDS011;4012;48.896;9.192;2024-01-15T12:20:23;8.73;;;5.40;;
7933;SDS011;4012;48.896;9.192;2024-01-15T12:22:52;9.73;;;6.50;;
7933;SDS011;4012;48.896;9.192;2024-01-15T12:25:18;7.70;;;5.50;;
7933;SDS011;4012;48.896;9.192;2024-01-15T12:27:44;8.50;;;5.47;;
7933;SDS011;4012;48.896;9.192;2024-01-15T12:30:10;9.00;;;5.37;;
7933;SDS011;4012;48.896;9.192;2024-01-15T12:32:37;7.73;;;5.10;;
7933;SDS011;4012;48.896;9.192;2024-01-15T12:35:03;11.50;;;4.47;;
7933;SDS011;4012;48.896;9.192;2024-01-15T12:37:29;6.87;;;4.47;;
7933;SDS011;4012;48.896;9.192;2024-01-15T12:39:55;8.33;;;5.07;;
7933;SDS011;4012;48.896;9.192;2024-01-15T12:42:21;6.50;;;4.60;;
7933;SDS011;4012;48.896;9.192;2024-01-15T12:44:46;6.10;;;4.77;;
7933;SDS011;4012;48.896;9.192;2024-01-15T12:47:12;9.77;;;4.97;;
7933;SDS011;4012;48.896;9.192;2024-01-15T12:49:39;5.77;;;4.50;;
7933;SDS011;4012;48.896;9.192;2024-01-15T12:52:07;9.30;;;5.30;;
7933;SDS011;4012;48.896;9.192;2024-01-15T12:54:34;7.87;;;4.73;;
7933;SDS011;4012;48.896;9.192;2024-01-15T12:57:00;12.10;;;5.10;;
7933;SDS011;4012;48.896;9.192;2024-01-15T12:59:26;11.40;;;3.77;;
7933;SDS011;4012;48.896;9.192;2024-01-15T13:01:51;9.67;;;4.57;;
7933;SDS011;4012;48.896;9.192;2024-01-15T13:04:23;12.60;;;4.10;;
7933;SDS011;4012;48.896;9.192;2024-01-15T13:06:50;7.50;;;4.50;;
7933;SDS011;4012;48.896;9.192;2024-01-15T13:09:16;8.67;;;4.13;;
7933;SDS011;4012;48.896;9.192;2024-01-15T13:11:45;7.30;;;4.10;;
7933;SDS011;4012;48.896;9.192;2024-01-15T13:14:11;7.03;;;3.40;;
7933;SDS011;4012;48.896;9.192;2024-01-15T13:16:38;7.43;;;3.10;;
7933;SDS011;4012;48.896;9.192;2024-01-15T13:19:10;3.50;;;2.80;;
7933;SDS011;4012;48.896;9.192;2024-01-15T13:21:37;4.63;;;3.20;;
7933;SDS011;4012;48.896;9.192;2024-01-15T13:24:04;4.37;;;3.00;;
7933;SDS011;4012;48.896;9.192;2024-01-15T13:26:31;5.10;;;3.30;;
7933;SDS011;4012;48.896;9.192;2024-01-15T13:28:57;5.17;;;3.97;;
7933;SDS011;4012;48.896;9.192;2024-01-15T13:31:24;5.60;;;3.60;;
7933;SDS011;4012;48.896;9.192;2024-01-15T13:33:50;4.17;;;3.20;;
7933;SDS011;4012;48.896;9.192;2024-01-15T13:36:15;7.23;;;3.73;;
7933;SDS011;4012;48.896;9.192;2024-01-15T13:38:41;5.40;;;3.80;;
7933;SDS011;4012;48.896;9.192;2024-01-15T13:41:07;5.07;;;4.10;;
7933;SDS011;4012;48.896;9.192;2024-01-15T13:43:33;5.90;;;4.03;;
7933;SDS011;4012;48.896;9.192;2024-01-15T13:45:59;6.03;;;4.10;;
7933;SDS011;4012;48.896;9.192;2024-01-15T13:48:25;7.03;;;4.80;;
7933;SDS011;4012;48.896;9.192;2024-01-15T13:50:51;8.13;;;4.30;;
7933;SDS011;4012;48.896;9.192;2024-01-15T13:53:17;7.40;;;4.70;;
7933;SDS011;4012;48.896;9.192;2024-01-15T13:55:44;6.67;;;4.93;;
7933;SDS011;4012;48.896;9.192;2024-01-15T13:58:09;7.17;;;5.20;;
7933;SDS011;4012;48.896;9.192;2024-01-15T14:00:35;6.00;;;5.33;;
7933;SDS011;4012;48.896;9.192;2024-01-15T14:03:01;6.90;;;4.47;;
7933;SDS011;4012;48.896;9.192;2024-01-15T14:05:27;7.40;;;5.33;;
7933;SDS011;4012;48.896;9.192;2024-01-15T14:07:53;6.10;;;4.83;;
7933;SDS011;4012;48.896;9.192;2024-01-15T14:10:18;5.90;;;5.10;;
7933;SDS011;4012;48.896;9.192;2024-01-15T14:12:45;7.80;;;5.13;;
7933;SDS011;4012;48.896;9.192;2024-01-15T14:15:11;8.30;;;5.90;;
7933;SDS011;4012;48.896;9.192;2024-01-15T14:17:37;7.63;;;5.57;;
7933;SDS011;4012;48.896;9.192;2024-01-15T14:20:03;7.73;;;5.60;;
7933;SDS011;4012;48.896;9.192;2024-01-15T14:22:30;7.13;;;5.37;;
7933;SDS011;4012;48.896;9.192;2024-01-15T14:24:55;6.73;;;5.10;;
7933;SDS011;4012;48.896;9.192;2024-01-15T14:27:21;7.43;;;5.87;;
7933;SDS011;4012;48.896;9.192;2024-01-15T14:29:47;7.60;;;6.80;;
7933;SDS011;4012;48.896;9.192;2024-01-15T14:32:12;9.47;;;6.27;;
7933;SDS011;4012;48.896;9.192;2024-01-15T14:34:38;8.17;;;5.97;;
7933;SDS011;4012;48.896;9.192;2024-01-15T14:37:04;7.13;;;5.97;;
7933;SDS011;4012;48.896;9.192;2024-01-15T14:39:29;8.17;;;6.37;;
7933;SDS011;4012;48.896;9.192;2024-01-15T14:41:57;8.20;;;6.03;;
7933;SDS011;4012;48.896;9.192;2024-01-15T14:44:23;11.83;;;6.23;;
7933;SDS011;4012;48.896;9.192;2024-01-15T14:46:48;9.70;;;6.73;;
7933;SDS011;4012;48.896;9.192;2024-01-15T14:49:15;6.90;;;6.00;;
7933;SDS011;4012;48.896;9.192;2024-01-15T14:51:42;8.33;;;6.70;;
7933;SDS011;4012;48.896;9.192;2024-01-15T14:54:09;7.97;;;6.60;;
7933;SDS011;4012;48.896;9.192;2024-01-15T14:56:35;8.40;;;6.77;;
7933;SDS011;4012;48.896;9.192;2024-01-15T14:59:00;8.37;;;6.27;;
7933;SDS011;4012;48.896;9.192;2024-01-15T15:01:26;9.63;;;6.60;;
7933;SDS011;4012;48.896;9.192;2024-01-15T15:03:52;7.77;;;5.87;;
7933;SDS011;4012;48.896;9.192;2024-01-15T15:06:18;6.93;;;6.23;;
7933;SDS011;4012;48.896;9.192;2024-01-15T15:08:43;8.50;;;6.90;;
7933;SDS011;4012;48.896;9.192;2024-01-15T15:11:09;9.63;;;6.57;;
7933;SDS011;4012;48.896;9.192;2024-01-15T15:13:36;7.50;;;6.70;;